sensor_id;sensor_type;location;lat;lon;timestamp;P1;durP1;ratioP1;P2;durP2;ratioP2
9773;SDS011;4926;42.670;23.316;2023-05-07T00:00:43;18.33;;;11.38;;
9773;SDS011;4926;42.670;23.316;2023-05-07T00:03:11;13.65;;;11.07;;
9773;SDS011;4926;42.670;23.316;2023-05-07T00:05:38;16.88;;;12.10;;
9773;SDS011;4926;42.670;23.316;2023-05-07T00:08:06;20.60;;;14.30;;
9773;SDS011;4926;42.670;23.316;2023-05-07T00:10:33;18.38;;;12.73;;
9773;SDS011;4926;42.670;23.316;2023-05-07T00:12:59;15.38;;;12.27;;
9773;SDS011;4926;42.670;23.316;2023-05-07T00:15:26;16.83;;;12.70;;
9773;SDS011;4926;42.670;23.316;2023-05-07T00:17:53;18.70;;;11.88;;
9773;SDS011;4926;42.670;23.316;2023-05-07T00:20:21;15.90;;;11.82;;
9773;SDS011;4926;42.670;23.316;2023-05-07T00:22:48;17.02;;;12.25;;
9773;SDS011;4926;42.670;23.316;2023-05-07T00:25:15;13.23;;;11.20;;
9773;SDS011;4926;42.670;23.316;2023-05-07T00:27:45;15.98;;;11.00;;
9773;SDS011;4926;42.670;23.316;2023-05-07T00:30:15;13.40;;;10.65;;
9773;SDS011;4926;42.670;23.316;2023-05-07T00:32:41;11.23;;;9.75;;
9773;SDS011;4926;42.670;23.316;2023-05-07T00:35:11;12.27;;;10.52;;
9773;SDS011;4926;42.670;23.316;2023-05-07T00:37:39;13.52;;;10.68;;
9773;SDS011;4926;42.670;23.316;2023-05-07T00:40:07;15.50;;;10.85;;
9773;SDS011;4926;42.670;23.316;2023-05-07T00:42:34;13.00;;;10.65;;
9773;SDS011;4926;42.670;23.316;2023-05-07T00:45:01;14.98;;;10.38;;
9773;SDS011;4926;42.670;23.316;2023-05-07T00:47:29;15.32;;;10.98;;
9773;SDS011;4926;42.670;23.316;2023-05-07T00:49:58;13.15;;;10.10;;
9773;SDS011;4926;42.670;23.316;2023-05-07T00:52:28;12.25;;;10.73;;
9773;SDS011;4926;42.670;23.316;2023-05-07T00:55:04;14.25;;;10.95;;
9773;SDS011;4926;42.670;23.316;2023-05-07T00:57:32;13.40;;;10.35;;
9773;SDS011;4926;42.670;23.316;2023-05-07T01:00:02;17.40;;;11.70;;
9773;SDS011;4926;42.670;23.316;2023-05-07T01:02:30;13.52;;;10.93;;
9773;SDS011;4926;42.670;23.316;2023-05-07T01:04:59;17.30;;;11.70;;
9773;SDS011;4926;42.670;23.316;2023-05-07T01:07:31;16.25;;;12.63;;
9773;SDS011;4926;42.670;23.316;2023-05-07T01:10:06;15.90;;;12.43;;
9773;SDS011;4926;42.670;23.316;2023-05-07T01:12:40;16.77;;;12.27;;
9773;SDS011;4926;42.670;23.316;2023-05-07T01:15:10;15.30;;;11.48;;
9773;SDS011;4926;42.670;23.316;2023-05-07T01:17:39;17.08;;;11.82;;
9773;SDS011;4926;42.670;23.316;2023-05-07T01:20:07;20.13;;;12.88;;
9773;SDS011;4926;42.670;23.316;2023-05-07T01:22:43;18.20;;;11.93;;
9773;SDS011;4926;42.670;23.316;2023-05-07T01:25:09;16.17;;;12.02;;
9773;SDS011;4926;42.670;23.316;2023-05-07T01:27:43;11.50;;;10.25;;
9773;SDS011;4926;42.670;23.316;2023-05-07T01:30:10;9.80;;;8.75;;
9773;SDS011;4926;42.670;23.316;2023-05-07T01:32:38;12.20;;;9.18;;
9773;SDS011;4926;42.670;23.316;2023-05-07T01:35:11;12.20;;;8.60;;
9773;SDS011;4926;42.670;23.316;2023-05-07T01:37:39;8.60;;;7.38;;
9773;SDS011;4926;42.670;23.316;2023-05-07T01:40:09;10.00;;;7.03;;
9773;SDS011;4926;42.670;23.316;2023-05-07T01:42:36;9.32;;;7.47;;
9773;SDS011;4926;42.670;23.316;2023-05-07T01:45:03;9.50;;;6.35;;
9773;SDS011;4926;42.670;23.316;2023-05-07T01:47:31;7.18;;;6.47;;
9773;SDS011;4926;42.670;23.316;2023-05-07T01:50:01;7.50;;;6.20;;
9773;SDS011;4926;42.670;23.316;2023-05-07T01:52:28;9.40;;;6.07;;
9773;SDS011;4926;42.670;23.316;2023-05-07T01:55:01;8.73;;;6.70;;
9773;SDS011;4926;42.670;23.316;2023-05-07T01:57:29;8.02;;;6.50;;
9773;SDS011;4926;42.670;23.316;2023-05-07T01:59:55;7.60;;;6.20;;
9773;SDS011;4926;42.670;23.316;2023-05-07T02:02:22;8.88;;;6.70;;
9773;SDS011;4926;42.670;23.316;2023-05-07T02:04:49;9.98;;;7.03;;
9773;SDS011;4926;42.670;23.316;2023-05-07T02:07:15;9.52;;;6.32;;
9773;SDS011;4926;42.670;23.316;2023-05-07T02:09:42;10.40;;;6.65;;
9773;SDS011;4926;42.670;23.316;2023-05-07T02:12:09;7.80;;;6.72;;
9773;SDS011;4926;42.670;23.316;2023-05-07T02:14:46;9.00;;;6.93;;
9773;SDS011;4926;42.670;23.316;2023-05-07T02:17:13;10.85;;;7.32;;
9773;SDS011;4926;42.670;23.316;2023-05-07T02:19:44;8.73;;;7.50;;
9773;SDS011;4926;42.670;23.316;2023-05-07T02:22:16;7.95;;;7.05;;
9773;SDS011;4926;42.670;23.316;2023-05-07T02:24:43;10.80;;;6.95;;
9773;SDS011;4926;42.670;23.316;2023-05-07T02:27:12;10.45;;;7.72;;
9773;SDS011;4926;42.670;23.316;2023-05-07T02:29:39;10.10;;;7.75;;
9773;SDS011;4926;42.670;23.316;2023-05-07T02:32:07;11.52;;;8.35;;
9773;SDS011;4926;42.670;23.316;2023-05-07T02:34:36;9.02;;;8.05;;
9773;SDS011;4926;42.670;23.316;2023-05-07T02:37:02;10.35;;;7.82;;
9773;SDS011;4926;42.670;23.316;2023-05-07T02:39:30;10.95;;;7.82;;
9773;SDS011;4926;42.670;23.316;2023-05-07T02:41:57;9.10;;;8.20;;
9773;SDS011;4926;42.670;23.316;2023-05-07T02:44:25;9.20;;;7.63;;
9773;SDS011;4926;42.670;23.316;2023-05-07T02:46:52;11.00;;;7.95;;
9773;SDS011;4926;42.670;23.316;2023-05-07T02:49:23;10.60;;;7.55;;
9773;SDS011;4926;42.670;23.316;2023-05-07T02:51:50;11.27;;;7.95;;
9773;SDS011;4926;42.670;23.316;2023-05-07T02:54:16;9.45;;;8.13;;
9773;SDS011;4926;42.670;23.316;2023-05-07T02:56:43;8.80;;;7.90;;
9773;SDS011;4926;42.670;23.316;2023-05-07T02:59:13;9.23;;;8.20;;
9773;SDS011;4926;42.670;23.316;2023-05-07T03:01:40;10.50;;;8.32;;
9773;SDS011;4926;42.670;23.316;2023-05-07T03:04:09;10.98;;;8.32;;
9773;SDS011;4926;42.670;23.316;2023-05-07T03:06:37;10.15;;;8.27;;
9773;SDS011;4926;42.670;23.316;2023-05-07T03:09:10;10.63;;;8.82;;
9773;SDS011;4926;42.670;23.316;2023-05-07T03:11:37;10.77;;;8.20;;
9773;SDS011;4926;42.670;23.316;2023-05-07T03:14:03;10.40;;;8.77;;
9773;SDS011;4926;42.670;23.316;2023-05-07T03:16:33;12.15;;;9.15;;
9773;SDS011;4926;42.670;23.316;2023-05-07T03:19:00;9.73;;;8.45;;
9773;SDS011;4926;42.670;23.316;2023-05-07T03:21:26;10.93;;;9.23;;
9773;SDS011;4926;42.670;23.316;2023-05-07T03:23:55;12.02;;;9.35;;
9773;SDS011;4926;42.670;23.316;2023-05-07T03:26:24;10.45;;;8.80;;
9773;SDS011;4926;42.670;23.316;2023-05-07T03:28:51;11.82;;;9.27;;
9773;SDS011;4926;42.670;23.316;2023-05-07T03:31:18;13.48;;;8.80;;
9773;SDS011;4926;42.670;23.316;2023-05-07T03:33:51;10.60;;;9.43;;
9773;SDS011;4926;42.670;23.316;2023-05-07T03:36:19;12.27;;;8.98;;
9773;SDS011;4926;42.670;23.316;2023-05-07T03:38:45;10.85;;;9.27;;
9773;SDS011;4926;42.670;23.316;2023-05-07T03:41:15;11.52;;;9.50;;
9773;SDS011;4926;42.670;23.316;2023-05-07T03:43:45;13.90;;;9.00;;
9773;SDS011;4926;42.670;23.316;2023-05-07T03:46:11;13.30;;;8.73;;
9773;SDS011;4926;42.670;23.316;2023-05-07T03:48:38;11.73;;;9.23;;
9773;SDS011;4926;42.670;23.316;2023-05-07T03:51:05;10.20;;;9.20;;
9773;SDS011;4926;42.670;23.316;2023-05-07T03:53:31;12.55;;;9.63;;
9773;SDS011;4926;42.670;23.316;2023-05-07T03:55:58;12.93;;;9.55;;
9773;SDS011;4926;42.670;23.316;2023-05-07T03:58:27;11.23;;;9.00;;
9773;SDS011;4926;42.670;23.316;2023-05-07T04:00:54;13.75;;;9.48;;
9773;SDS011;4926;42.670;23.316;2023-05-07T04:03:21;10.23;;;8.68;;
9773;SDS011;4926;42.670;23.316;2023-05-07T04:05:50;11.80;;;9.05;;
9773;SDS011;4926;42.670;23.316;2023-05-07T04:08:16;12.00;;;9.68;;
9773;SDS011;4926;42.670;23.316;2023-05-07T04:10:45;12.95;;;10.45;;
9773;SDS011;4926;42.670;23.316;2023-05-07T04:13:14;14.45;;;10.23;;
9773;SDS011;4926;42.670;23.316;2023-05-07T04:15:42;12.05;;;9.80;;
9773;SDS011;4926;42.670;23.316;2023-05-07T04:18:10;12.30;;;9.90;;
9773;SDS011;4926;42.670;23.316;2023-05-07T04:20:37;12.18;;;10.10;;
9773;SDS011;4926;42.670;23.316;2023-05-07T04:23:04;11.90;;;9.95;;
9773;SDS011;4926;42.670;23.316;2023-05-07T04:25:32;11.25;;;10.00;;
9773;SDS011;4926;42.670;23.316;2023-05-07T04:27:58;14.93;;;10.68;;
9773;SDS011;4926;42.670;23.316;2023-05-07T04:30:25;15.15;;;10.57;;
9773;SDS011;4926;42.670;23.316;2023-05-07T04:32:54;14.48;;;10.32;;
9773;SDS011;4926;42.670;23.316;2023-05-07T04:35:21;14.98;;;10.68;;
9773;SDS011;4926;42.670;23.316;2023-05-07T04:37:47;13.98;;;10.40;;
9773;SDS011;4926;42.670;23.316;2023-05-07T04:40:14;11.93;;;9.80;;
9773;SDS011;4926;42.670;23.316;2023-05-07T04:42:44;11.43;;;10.10;;
9773;SDS011;4926;42.670;23.316;2023-05-07T04:45:10;14.35;;;10.07;;
9773;SDS011;4926;42.670;23.316;2023-05-07T04:47:37;15.68;;;10.05;;
9773;SDS011;4926;42.670;23.316;2023-05-07T04:50:06;11.65;;;10.30;;
9773;SDS011;4926;42.670;23.316;2023-05-07T04:52:33;13.50;;;10.38;;
9773;SDS011;4926;42.670;23.316;2023-05-07T04:55:00;14.25;;;10.93;;
9773;SDS011;4926;42.670;23.316;2023-05-07T04:57:29;11.60;;;10.27;;
9773;SDS011;4926;42.670;23.316;2023-05-07T04:59:57;13.07;;;9.93;;
9773;SDS011;4926;42.670;23.316;2023-05-07T05:02:26;14.38;;;9.98;;
9773;SDS011;4926;42.670;23.316;2023-05-07T05:04:53;11.75;;;10.00;;
9773;SDS011;4926;42.670;23.316;2023-05-07T05:07:21;17.50;;;10.77;;
9773;SDS011;4926;42.670;23.316;2023-05-07T05:09:53;12.73;;;10.18;;
9773;SDS011;4926;42.670;23.316;2023-05-07T05:12:20;12.65;;;10.65;;
9773;SDS011;4926;42.670;23.316;2023-05-07T05:14:47;15.30;;;10.50;;
9773;SDS011;4926;42.670;23.316;2023-05-07T05:17:17;10.73;;;8.93;;
9773;SDS011;4926;42.670;23.316;2023-05-07T05:19:43;14.13;;;9.82;;
9773;SDS011;4926;42.670;23.316;2023-05-07T05:22:19;13.70;;;9.82;;
9773;SDS011;4926;42.670;23.316;2023-05-07T05:24:59;13.70;;;9.80;;
9773;SDS011;4926;42.670;23.316;2023-05-07T05:27:26;16.00;;;10.48;;
9773;SDS011;4926;42.670;23.316;2023-05-07T05:29:52;12.68;;;9.60;;
9773;SDS011;4926;42.670;23.316;2023-05-07T05:32:24;13.73;;;10.52;;
9773;SDS011;4926;42.670;23.316;2023-05-07T05:34:50;10.75;;;9.63;;
9773;SDS011;4926;42.670;23.316;2023-05-07T05:37:19;14.95;;;10.02;;
9773;SDS011;4926;42.670;23.316;2023-05-07T05:39:48;11.40;;;9.13;;
9773;SDS011;4926;42.670;23.316;2023-05-07T05:42:16;12.13;;;10.25;;
9773;SDS011;4926;42.670;23.316;2023-05-07T05:44:43;14.73;;;10.50;;
9773;SDS011;4926;42.670;23.316;2023-05-07T05:47:09;11.80;;;9.82;;
9773;SDS011;4926;42.670;23.316;2023-05-07T05:49:41;13.25;;;10.73;;
9773;SDS011;4926;42.670;23.316;2023-05-07T05:52:08;11.43;;;9.98;;
9773;SDS011;4926;42.670;23.316;2023-05-07T05:54:36;12.30;;;10.35;;
9773;SDS011;4926;42.670;23.316;2023-05-07T05:57:03;12.77;;;9.32;;
9773;SDS011;4926;42.670;23.316;2023-05-07T05:59:34;11.93;;;9.88;;
9773;SDS011;4926;42.670;23.316;2023-05-07T06:02:01;12.32;;;10.50;;
9773;SDS011;4926;42.670;23.316;2023-05-07T06:04:30;11.82;;;9.45;;
9773;SDS011;4926;42.670;23.316;2023-05-07T06:07:00;10.02;;;9.02;;
9773;SDS011;4926;42.670;23.316;2023-05-07T06:09:26;10.18;;;9.05;;
9773;SDS011;4926;42.670;23.316;2023-05-07T06:11:56;14.68;;;9.35;;
9773;SDS011;4926;42.670;23.316;2023-05-07T06:14:23;10.90;;;9.73;;
9773;SDS011;4926;42.670;23.316;2023-05-07T06:16:53;13.23;;;9.73;;
9773;SDS011;4926;42.670;23.316;2023-05-07T06:19:20;13.30;;;8.88;;
9773;SDS011;4926;42.670;23.316;2023-05-07T06:21:48;13.77;;;9.18;;
9773;SDS011;4926;42.670;23.316;2023-05-07T06:24:18;11.15;;;9.13;;
9773;SDS011;4926;42.670;23.316;2023-05-07T06:26:45;11.50;;;9.45;;
9773;SDS011;4926;42.670;23.316;2023-05-07T06:29:11;10.43;;;9.10;;
9773;SDS011;4926;42.670;23.316;2023-05-07T06:31:38;11.40;;;9.40;;
9773;SDS011;4926;42.670;23.316;2023-05-07T06:34:06;13.13;;;9.65;;
9773;SDS011;4926;42.670;23.316;2023-05-07T06:36:33;12.25;;;9.50;;
9773;SDS011;4926;42.670;23.316;2023-05-07T06:39:00;9.93;;;8.80;;
9773;SDS011;4926;42.670;23.316;2023-05-07T06:41:30;15.00;;;9.35;;
9773;SDS011;4926;42.670;23.316;2023-05-07T06:43:56;11.10;;;9.73;;
9773;SDS011;4926;42.670;23.316;2023-05-07T06:46:23;11.45;;;10.27;;
9773;SDS011;4926;42.670;23.316;2023-05-07T06:48:50;11.60;;;9.68;;
9773;SDS011;4926;42.670;23.316;2023-05-07T06:51:18;11.90;;;9.90;;
9773;SDS011;4926;42.670;23.316;2023-05-07T06:53:50;12.57;;;9.45;;
9773;SDS011;4926;42.670;23.316;2023-05-07T06:56:17;11.77;;;10.10;;
9773;SDS011;4926;42.670;23.316;2023-05-07T06:58:43;11.45;;;9.75;;
9773;SDS011;4926;42.670;23.316;2023-05-07T07:01:10;10.10;;;9.00;;
9773;SDS011;4926;42.670;23.316;2023-05-07T07:03:37;11.40;;;9.27;;
9773;SDS011;4926;42.670;23.316;2023-05-07T07:06:03;11.02;;;9.30;;
9773;SDS011;4926;42.670;23.316;2023-05-07T07:08:32;11.65;;;9.05;;
9773;SDS011;4926;42.670;23.316;2023-05-07T07:10:59;9.45;;;8.50;;
9773;SDS011;4926;42.670;23.316;2023-05-07T07:13:26;10.07;;;8.20;;
9773;SDS011;4926;42.670;23.316;2023-05-07T07:15:55;10.63;;;8.73;;
9773;SDS011;4926;42.670;23.316;2023-05-07T07:18:23;9.63;;;8.48;;
9773;SDS011;4926;42.670;23.316;2023-05-07T07:20:51;10.23;;;8.13;;
9773;SDS011;4926;42.670;23.316;2023-05-07T07:23:20;10.07;;;8.05;;
9773;SDS011;4926;42.670;23.316;2023-05-07T07:25:48;8.70;;;6.90;;
9773;SDS011;4926;42.670;23.316;2023-05-07T07:28:14;8.85;;;7.05;;
9773;SDS011;4926;42.670;23.316;2023-05-07T07:30:46;15.52;;;7.30;;
9773;SDS011;4926;42.670;23.316;2023-05-07T07:33:13;9.50;;;7.90;;
9773;SDS011;4926;42.670;23.316;2023-05-07T07:35:40;9.60;;;7.53;;
9773;SDS011;4926;42.670;23.316;2023-05-07T07:38:06;9.88;;;7.60;;
9773;SDS011;4926;42.670;23.316;2023-05-07T07:40:34;8.00;;;6.97;;
9773;SDS011;4926;42.670;23.316;2023-05-07T07:43:02;8.07;;;6.60;;
9773;SDS011;4926;42.670;23.316;2023-05-07T07:45:31;7.78;;;6.88;;
9773;SDS011;4926;42.670;23.316;2023-05-07T07:47:58;7.97;;;6.80;;
9773;SDS011;4926;42.670;23.316;2023-05-07T07:50:27;8.38;;;7.55;;
9773;SDS011;4926;42.670;23.316;2023-05-07T07:52:54;14.40;;;8.30;;
9773;SDS011;4926;42.670;23.316;2023-05-07T07:55:20;8.55;;;7.25;;
9773;SDS011;4926;42.670;23.316;2023-05-07T07:57:48;11.18;;;6.80;;
9773;SDS011;4926;42.670;23.316;2023-05-07T08:00:17;9.95;;;6.75;;
9773;SDS011;4926;42.670;23.316;2023-05-07T08:02:44;8.73;;;7.22;;
9773;SDS011;4926;42.670;23.316;2023-05-07T08:05:13;9.73;;;7.90;;
9773;SDS011;4926;42.670;23.316;2023-05-07T08:07:41;11.35;;;7.50;;
9773;SDS011;4926;42.670;23.316;2023-05-07T08:10:08;8.60;;;7.45;;
9773;SDS011;4926;42.670;23.316;2023-05-07T08:12:45;9.80;;;6.90;;
9773;SDS011;4926;42.670;23.316;2023-05-07T08:15:12;9.60;;;7.05;;
9773;SDS011;4926;42.670;23.316;2023-05-07T08:17:40;11.02;;;9.43;;
9773;SDS011;4926;42.670;23.316;2023-05-07T08:20:07;9.77;;;8.30;;
9773;SDS011;4926;42.670;23.316;2023-05-07T08:22:36;10.15;;;8.40;;
9773;SDS011;4926;42.670;23.316;2023-05-07T08:25:03;11.30;;;8.60;;
9773;SDS011;4926;42.670;23.316;2023-05-07T08:27:31;9.35;;;7.65;;
9773;SDS011;4926;42.670;23.316;2023-05-07T08:29:58;11.00;;;9.00;;
9773;SDS011;4926;42.670;23.316;2023-05-07T08:32:25;11.15;;;9.05;;
9773;SDS011;4926;42.670;23.316;2023-05-07T08:34:55;16.20;;;9.18;;
9773;SDS011;4926;42.670;23.316;2023-05-07T08:37:22;13.82;;;9.32;;
9773;SDS011;4926;42.670;23.316;2023-05-07T08:39:51;10.43;;;7.95;;
9773;SDS011;4926;42.670;23.316;2023-05-07T08:42:18;10.00;;;8.07;;
9773;SDS011;4926;42.670;23.316;2023-05-07T08:44:51;12.00;;;8.07;;
9773;SDS011;4926;42.670;23.316;2023-05-07T08:47:19;7.95;;;7.15;;
9773;SDS011;4926;42.670;23.316;2023-05-07T08:49:55;8.30;;;7.50;;
9773;SDS011;4926;42.670;23.316;2023-05-07T08:52:22;9.80;;;7.05;;
9773;SDS011;4926;42.670;23.316;2023-05-07T08:54:49;7.88;;;6.68;;
9773;SDS011;4926;42.670;23.316;2023-05-07T08:57:15;10.35;;;6.40;;
9773;SDS011;4926;42.670;23.316;2023-05-07T08:59:42;9.68;;;7.00;;
9773;SDS011;4926;42.670;23.316;2023-05-07T09:02:09;7.63;;;5.90;;
9773;SDS011;4926;42.670;23.316;2023-05-07T09:04:37;6.30;;;5.70;;
9773;SDS011;4926;42.670;23.316;2023-05-07T09:07:10;6.72;;;5.88;;
9773;SDS011;4926;42.670;23.316;2023-05-07T09:09:36;8.88;;;5.80;;
9773;SDS011;4926;42.670;23.316;2023-05-07T09:12:03;8.15;;;6.00;;
9773;SDS011;4926;42.670;23.316;2023-05-07T09:14:30;5.90;;;5.30;;
9773;SDS011;4926;42.670;23.316;2023-05-07T09:16:57;5.85;;;5.30;;
9773;SDS011;4926;42.670;23.316;2023-05-07T09:19:24;6.10;;;5.60;;
9773;SDS011;4926;42.670;23.316;2023-05-07T09:21:57;8.20;;;5.65;;
9773;SDS011;4926;42.670;23.316;2023-05-07T09:24:32;7.40;;;5.35;;
9773;SDS011;4926;42.670;23.316;2023-05-07T09:27:03;6.43;;;5.30;;
9773;SDS011;4926;42.670;23.316;2023-05-07T09:29:30;6.70;;;4.50;;
9773;SDS011;4926;42.670;23.316;2023-05-07T09:32:00;5.57;;;4.82;;
9773;SDS011;4926;42.670;23.316;2023-05-07T09:34:31;5.35;;;4.30;;
9773;SDS011;4926;42.670;23.316;2023-05-07T09:36:58;6.03;;;4.22;;
9773;SDS011;4926;42.670;23.316;2023-05-07T09:39:28;7.88;;;4.22;;
9773;SDS011;4926;42.670;23.316;2023-05-07T09:42:06;5.90;;;3.85;;
9773;SDS011;4926;42.670;23.316;2023-05-07T09:44:45;5.22;;;4.45;;
9773;SDS011;4926;42.670;23.316;2023-05-07T09:47:16;5.40;;;4.80;;
9773;SDS011;4926;42.670;23.316;2023-05-07T09:49:55;5.20;;;4.70;;
9773;SDS011;4926;42.670;23.316;2023-05-07T09:52:23;9.30;;;5.35;;
9773;SDS011;4926;42.670;23.316;2023-05-07T09:54:55;6.10;;;4.90;;
9773;SDS011;4926;42.670;23.316;2023-05-07T09:57:24;7.28;;;4.93;;
9773;SDS011;4926;42.670;23.316;2023-05-07T09:59:52;5.93;;;4.70;;
9773;SDS011;4926;42.670;23.316;2023-05-07T10:02:21;6.40;;;4.53;;
9773;SDS011;4926;42.670;23.316;2023-05-07T10:04:53;5.78;;;4.80;;
9773;SDS011;4926;42.670;23.316;2023-05-07T10:07:20;5.00;;;4.28;;
9773;SDS011;4926;42.670;23.316;2023-05-07T10:09:50;4.50;;;4.00;;
9773;SDS011;4926;42.670;23.316;2023-05-07T10:12:19;5.10;;;4.40;;
9773;SDS011;4926;42.670;23.316;2023-05-07T10:14:46;5.20;;;4.15;;
9773;SDS011;4926;42.670;23.316;2023-05-07T10:17:15;4.90;;;3.97;;
9773;SDS011;4926;42.670;23.316;2023-05-07T10:19:48;4.57;;;4.13;;
9773;SDS011;4926;42.670;23.316;2023-05-07T10:22:16;3.90;;;3.50;;
9773;SDS011;4926;42.670;23.316;2023-05-07T10:24:45;5.32;;;3.67;;
9773;SDS011;4926;42.670;23.316;2023-05-07T10:27:19;5.45;;;3.63;;
9773;SDS011;4926;42.670;23.316;2023-05-07T10:29:50;5.18;;;4.10;;
9773;SDS011;4926;42.670;23.316;2023-05-07T10:32:30;5.75;;;3.95;;
9773;SDS011;4926;42.670;23.316;2023-05-07T10:35:03;4.43;;;4.03;;
9773;SDS011;4926;42.670;23.316;2023-05-07T10:37:35;4.65;;;4.00;;
9773;SDS011;4926;42.670;23.316;2023-05-07T10:40:02;6.13;;;4.00;;
9773;SDS011;4926;42.670;23.316;2023-05-07T10:42:37;4.30;;;3.90;;
9773;SDS011;4926;42.670;23.316;2023-05-07T10:45:11;4.30;;;3.88;;
9773;SDS011;4926;42.670;23.316;2023-05-07T10:50:36;7.35;;;5.10;;
9773;SDS011;4926;42.670;23.316;2023-05-07T10:53:23;5.60;;;4.00;;
9773;SDS011;4926;42.670;23.316;2023-05-07T10:59:07;5.50;;;4.00;;
9773;SDS011;4926;42.670;23.316;2023-05-07T11:02:00;4.07;;;3.72;;
9773;SDS011;4926;42.670;23.316;2023-05-07T11:04:29;5.20;;;4.25;;
9773;SDS011;4926;42.670;23.316;2023-05-07T11:10:02;6.18;;;4.30;;
9773;SDS011;4926;42.670;23.316;2023-05-07T11:12:49;5.20;;;4.05;;
9773;SDS011;4926;42.670;23.316;2023-05-07T11:15:36;4.72;;;3.97;;
9773;SDS011;4926;42.670;23.316;2023-05-07T11:18:08;4.47;;;3.78;;
9773;SDS011;4926;42.670;23.316;2023-05-07T11:20:47;4.00;;;3.70;;
9773;SDS011;4926;42.670;23.316;2023-05-07T11:26:19;6.20;;;4.00;;
9773;SDS011;4926;42.670;23.316;2023-05-07T11:28:49;4.15;;;3.75;;
9773;SDS011;4926;42.670;23.316;2023-05-07T11:31:21;3.97;;;3.67;;
9773;SDS011;4926;42.670;23.316;2023-05-07T11:33:54;5.75;;;3.55;;
9773;SDS011;4926;42.670;23.316;2023-05-07T11:36:24;5.00;;;3.33;;
9773;SDS011;4926;42.670;23.316;2023-05-07T11:38:54;5.05;;;3.70;;
9773;SDS011;4926;42.670;23.316;2023-05-07T11:41:23;4.10;;;3.38;;
9773;SDS011;4926;42.670;23.316;2023-05-07T11:43:59;8.05;;;3.80;;
9773;SDS011;4926;42.670;23.316;2023-05-07T11:46:28;4.53;;;3.33;;
9773;SDS011;4926;42.670;23.316;2023-05-07T11:49:00;4.97;;;3.55;;
9773;SDS011;4926;42.670;23.316;2023-05-07T11:51:27;5.43;;;3.63;;
9773;SDS011;4926;42.670;23.316;2023-05-07T11:53:55;4.07;;;3.28;;
9773;SDS011;4926;42.670;23.316;2023-05-07T11:56:21;5.43;;;3.53;;
9773;SDS011;4926;42.670;23.316;2023-05-07T11:58:48;5.05;;;3.60;;
9773;SDS011;4926;42.670;23.316;2023-05-07T12:01:17;5.82;;;4.00;;
9773;SDS011;4926;42.670;23.316;2023-05-07T12:03:45;3.65;;;3.35;;
9773;SDS011;4926;42.670;23.316;2023-05-07T12:06:12;5.22;;;3.50;;
9773;SDS011;4926;42.670;23.316;2023-05-07T12:08:41;4.50;;;3.47;;
9773;SDS011;4926;42.670;23.316;2023-05-07T12:11:10;5.55;;;3.53;;
9773;SDS011;4926;42.670;23.316;2023-05-07T12:13:40;3.80;;;3.30;;
9773;SDS011;4926;42.670;23.316;2023-05-07T12:16:07;5.90;;;4.28;;
9773;SDS011;4926;42.670;23.316;2023-05-07T12:18:37;4.53;;;4.03;;
9773;SDS011;4926;42.670;23.316;2023-05-07T12:21:07;4.35;;;3.40;;
9773;SDS011;4926;42.670;23.316;2023-05-07T12:23:36;3.92;;;3.53;;
9773;SDS011;4926;42.670;23.316;2023-05-07T12:26:05;4.43;;;3.67;;
9773;SDS011;4926;42.670;23.316;2023-05-07T12:28:36;4.97;;;3.30;;
9773;SDS011;4926;42.670;23.316;2023-05-07T12:31:05;4.85;;;3.17;;
9773;SDS011;4926;42.670;23.316;2023-05-07T12:33:33;3.40;;;3.10;;
9773;SDS011;4926;42.670;23.316;2023-05-07T12:36:02;3.20;;;2.80;;
9773;SDS011;4926;42.670;23.316;2023-05-07T12:38:35;3.25;;;2.70;;
9773;SDS011;4926;42.670;23.316;2023-05-07T12:41:04;2.90;;;2.65;;
9773;SDS011;4926;42.670;23.316;2023-05-07T12:43:34;3.03;;;2.72;;
9773;SDS011;4926;42.670;23.316;2023-05-07T12:46:01;4.53;;;2.83;;
9773;SDS011;4926;42.670;23.316;2023-05-07T12:48:30;4.38;;;2.75;;
9773;SDS011;4926;42.670;23.316;2023-05-07T12:50:58;3.67;;;2.53;;
9773;SDS011;4926;42.670;23.316;2023-05-07T12:53:31;4.13;;;2.80;;
9773;SDS011;4926;42.670;23.316;2023-05-07T12:56:00;4.43;;;2.58;;
9773;SDS011;4926;42.670;23.316;2023-05-07T12:58:31;3.95;;;2.58;;
9773;SDS011;4926;42.670;23.316;2023-05-07T13:01:00;4.38;;;3.10;;
9773;SDS011;4926;42.670;23.316;2023-05-07T13:03:30;3.30;;;3.00;;
9773;SDS011;4926;42.670;23.316;2023-05-07T13:05:59;3.88;;;3.10;;
9773;SDS011;4926;42.670;23.316;2023-05-07T13:08:27;7.93;;;3.22;;
9773;SDS011;4926;42.670;23.316;2023-05-07T13:11:00;2.95;;;2.58;;
9773;SDS011;4926;42.670;23.316;2023-05-07T13:13:30;6.18;;;3.00;;
9773;SDS011;4926;42.670;23.316;2023-05-07T13:15:57;2.63;;;2.42;;
9773;SDS011;4926;42.670;23.316;2023-05-07T13:18:24;2.92;;;2.72;;
9773;SDS011;4926;42.670;23.316;2023-05-07T13:20:53;5.85;;;3.08;;
9773;SDS011;4926;42.670;23.316;2023-05-07T13:23:20;5.15;;;3.20;;
9773;SDS011;4926;42.670;23.316;2023-05-07T13:25:47;3.65;;;3.35;;
9773;SDS011;4926;42.670;23.316;2023-05-07T13:28:20;5.35;;;2.85;;
9773;SDS011;4926;42.670;23.316;2023-05-07T13:30:49;3.38;;;2.97;;
9773;SDS011;4926;42.670;23.316;2023-05-07T13:33:17;3.17;;;2.80;;
9773;SDS011;4926;42.670;23.316;2023-05-07T13:35:46;4.20;;;3.08;;
9773;SDS011;4926;42.670;23.316;2023-05-07T13:38:15;3.95;;;2.85;;
9773;SDS011;4926;42.670;23.316;2023-05-07T13:40:47;3.35;;;2.85;;
9773;SDS011;4926;42.670;23.316;2023-05-07T13:43:13;3.15;;;2.90;;
9773;SDS011;4926;42.670;23.316;2023-05-07T13:45:45;3.20;;;2.88;;
9773;SDS011;4926;42.670;23.316;2023-05-07T13:48:11;4.30;;;2.85;;
9773;SDS011;4926;42.670;23.316;2023-05-07T13:50:38;5.03;;;2.63;;
9773;SDS011;4926;42.670;23.316;2023-05-07T13:53:05;4.28;;;2.80;;
9773;SDS011;4926;42.670;23.316;2023-05-07T13:55:31;4.35;;;3.08;;
9773;SDS011;4926;42.670;23.316;2023-05-07T13:57:59;3.92;;;2.97;;
9773;SDS011;4926;42.670;23.316;2023-05-07T14:00:27;3.83;;;3.03;;
9773;SDS011;4926;42.670;23.316;2023-05-07T14:02:56;3.10;;;2.70;;
9773;SDS011;4926;42.670;23.316;2023-05-07T14:05:23;4.20;;;2.88;;
9773;SDS011;4926;42.670;23.316;2023-05-07T14:07:51;3.08;;;2.80;;
9773;SDS011;4926;42.670;23.316;2023-05-07T14:10:18;3.15;;;2.80;;
9773;SDS011;4926;42.670;23.316;2023-05-07T14:12:47;4.88;;;2.80;;
9773;SDS011;4926;42.670;23.316;2023-05-07T14:15:14;2.95;;;2.70;;
9773;SDS011;4926;42.670;23.316;2023-05-07T14:17:41;3.75;;;3.03;;
9773;SDS011;4926;42.670;23.316;2023-05-07T14:20:10;3.30;;;3.00;;
9773;SDS011;4926;42.670;23.316;2023-05-07T14:22:38;3.20;;;2.90;;
9773;SDS011;4926;42.670;23.316;2023-05-07T14:25:05;3.42;;;2.75;;
9773;SDS011;4926;42.670;23.316;2023-05-07T14:27:32;3.15;;;2.65;;
9773;SDS011;4926;42.670;23.316;2023-05-07T14:29:59;3.20;;;2.90;;
9773;SDS011;4926;42.670;23.316;2023-05-07T14:32:26;4.32;;;2.55;;
9773;SDS011;4926;42.670;23.316;2023-05-07T14:34:55;3.13;;;2.80;;
9773;SDS011;4926;42.670;23.316;2023-05-07T14:37:23;3.13;;;2.70;;
9773;SDS011;4926;42.670;23.316;2023-05-07T14:39:54;3.40;;;3.10;;
9773;SDS011;4926;42.670;23.316;2023-05-07T14:42:24;5.07;;;2.72;;
9773;SDS011;4926;42.670;23.316;2023-05-07T14:44:50;4.15;;;2.88;;
9773;SDS011;4926;42.670;23.316;2023-05-07T14:47:18;3.05;;;2.85;;
9773;SDS011;4926;42.670;23.316;2023-05-07T14:49:49;4.47;;;2.80;;
9773;SDS011;4926;42.670;23.316;2023-05-07T14:52:16;3.25;;;2.80;;
9773;SDS011;4926;42.670;23.316;2023-05-07T14:54:44;4.47;;;2.70;;
9773;SDS011;4926;42.670;23.316;2023-05-07T14:57:14;2.85;;;2.65;;
9773;SDS011;4926;42.670;23.316;2023-05-07T14:59:48;3.33;;;2.92;;
9773;SDS011;4926;42.670;23.316;2023-05-07T15:02:15;3.72;;;3.00;;
9773;SDS011;4926;42.670;23.316;2023-05-07T15:04:42;3.33;;;2.95;;
9773;SDS011;4926;42.670;23.316;2023-05-07T15:07:11;3.28;;;2.97;;
9773;SDS011;4926;42.670;23.316;2023-05-07T15:09:40;4.95;;;2.90;;
9773;SDS011;4926;42.670;23.316;2023-05-07T15:12:08;3.10;;;2.80;;
9773;SDS011;4926;42.670;23.316;2023-05-07T15:14:35;3.30;;;3.00;;